sensor_id;sensor_type;location;lat;lon;timestamp;pressure;altitude;pressure_sealevel;temperature;humidity
74327;BME280;62745;51.060;13.786;2023-12-14T00:01:41;99009.50;;;6.72;100.00
74327;BME280;62745;51.060;13.786;2023-12-14T00:04:06;99008.28;;;6.75;100.00
74327;BME280;62745;51.060;13.786;2023-12-14T00:06:32;99008.50;;;6.73;100.00
74327;BME280;62745;51.060;13.786;2023-12-14T00:08:57;99010.22;;;6.53;100.00
74327;BME280;62745;51.060;13.786;2023-12-14T00:11:22;99012.25;;;6.51;100.00
74327;BME280;62745;51.060;13.786;2023-12-14T00:13:47;99017.34;;;6.52;100.00
74327;BME280;62745;51.060;13.786;2023-12-14T00:16:13;99024.50;;;6.52;100.00
74327;BME280;62745;51.060;13.786;2023-12-14T00:18:38;99014.16;;;6.63;100.00
74327;BME280;62745;51.060;13.786;2023-12-14T00:21:04;99024.28;;;6.47;100.00
74327;BME280;62745;51.060;13.786;2023-12-14T00:23:29;99017.88;;;6.34;100.00
74327;BME280;62745;51.060;13.786;2023-12-14T00:25:54;99013.16;;;6.30;100.00
74327;BME280;62745;51.060;13.786;2023-12-14T00:28:19;99021.06;;;6.58;100.00
74327;BME280;62745;51.060;13.786;2023-12-14T00:30:45;99030.66;;;6.59;100.00
74327;BME280;62745;51.060;13.786;2023-12-14T00:33:10;99035.97;;;6.59;100.00
74327;BME280;62745;51.060;13.786;2023-12-14T00:35:35;99027.53;;;6.49;100.00
74327;BME280;62745;51.060;13.786;2023-12-14T00:38:01;99038.03;;;6.63;100.00
74327;BME280;62745;51.060;13.786;2023-12-14T00:40:26;99040.47;;;6.58;100.00
74327;BME280;62745;51.060;13.786;2023-12-14T00:42:51;99039.66;;;6.58;100.00
74327;BME280;62745;51.060;13.786;2023-12-14T00:45:17;99042.53;;;6.63;100.00
74327;BME280;62745;51.060;13.786;2023-12-14T00:47:43;99047.66;;;6.71;100.00
74327;BME280;62745;51.060;13.786;2023-12-14T00:50:08;99056.22;;;6.67;100.00
74327;BME280;62745;51.060;13.786;2023-12-14T00:52:34;99059.25;;;6.63;100.00
74327;BME280;62745;51.060;13.786;2023-12-14T00:54:59;99054.63;;;6.72;100.00
74327;BME280;62745;51.060;13.786;2023-12-14T00:57:24;99063.75;;;6.63;100.00
74327;BME280;62745;51.060;13.786;2023-12-14T00:59:49;99072.69;;;6.55;100.00
74327;BME280;62745;51.060;13.786;2023-12-14T01:02:15;99069.75;;;6.44;100.00
74327;BME280;62745;51.060;13.786;2023-12-14T01:04:40;99074.00;;;6.38;100.00
74327;BME280;62745;51.060;13.786;2023-12-14T01:07:07;99086.81;;;6.34;100.00
74327;BME280;62745;51.060;13.786;2023-12-14T01:09:32;99087.03;;;6.33;100.00
74327;BME280;62745;51.060;13.786;2023-12-14T01:11:57;99079.47;;;6.30;100.00
74327;BME280;62745;51.060;13.786;2023-12-14T01:14:23;99078.25;;;6.32;100.00
74327;BME280;62745;51.060;13.786;2023-12-14T01:16:48;99084.94;;;6.28;100.00
74327;BME280;62745;51.060;13.786;2023-12-14T01:19:14;99079.88;;;6.33;100.00
74327;BME280;62745;51.060;13.786;2023-12-14T01:21:39;99092.72;;;6.58;100.00
74327;BME280;62745;51.060;13.786;2023-12-14T01:24:05;99080.16;;;6.45;100.00
74327;BME280;62745;51.060;13.786;2023-12-14T01:26:30;99097.09;;;6.44;100.00
74327;BME280;62745;51.060;13.786;2023-12-14T01:28:55;99096.47;;;6.42;100.00
74327;BME280;62745;51.060;13.786;2023-12-14T01:31:20;99101.38;;;6.39;100.00
74327;BME280;62745;51.060;13.786;2023-12-14T01:33:48;99100.41;;;6.53;100.00
74327;BME280;62745;51.060;13.786;2023-12-14T01:36:20;99105.50;;;6.82;100.00
74327;BME280;62745;51.060;13.786;2023-12-14T01:38:45;99104.03;;;6.73;100.00
74327;BME280;62745;51.060;13.786;2023-12-14T01:41:11;99106.91;;;6.78;100.00
74327;BME280;62745;51.060;13.786;2023-12-14T01:43:36;99107.09;;;6.77;100.00
74327;BME280;62745;51.060;13.786;2023-12-14T01:46:01;99111.84;;;6.88;100.00
74327;BME280;62745;51.060;13.786;2023-12-14T01:48:27;99116.22;;;6.68;100.00
74327;BME280;62745;51.060;13.786;2023-12-14T01:50:52;99121.34;;;6.69;100.00
74327;BME280;62745;51.060;13.786;2023-12-14T01:53:17;99123.13;;;6.62;100.00
74327;BME280;62745;51.060;13.786;2023-12-14T01:55:42;99121.81;;;6.79;100.00
74327;BME280;62745;51.060;13.786;2023-12-14T01:58:08;99122.31;;;6.61;100.00
74327;BME280;62745;51.060;13.786;2023-12-14T02:01:00;99125.78;;;6.90;100.00
74327;BME280;62745;51.060;13.786;2023-12-14T02:03:29;99128.69;;;6.67;100.00
74327;BME280;62745;51.060;13.786;2023-12-14T02:05:54;99135.28;;;6.78;100.00
74327;BME280;62745;51.060;13.786;2023-12-14T02:08:20;99137.53;;;6.46;100.00
74327;BME280;62745;51.060;13.786;2023-12-14T02:10:45;99133.88;;;6.82;100.00
74327;BME280;62745;51.060;13.786;2023-12-14T02:13:11;99140.41;;;6.79;100.00
74327;BME280;62745;51.060;13.786;2023-12-14T02:15:37;99143.97;;;6.65;100.00
74327;BME280;62745;51.060;13.786;2023-12-14T02:18:04;99138.13;;;6.76;100.00
74327;BME280;62745;51.060;13.786;2023-12-14T02:20:29;99143.28;;;6.84;100.00
74327;BME280;62745;51.060;13.786;2023-12-14T02:22:55;99145.47;;;6.74;100.00
74327;BME280;62745;51.060;13.786;2023-12-14T02:25:21;99149.97;;;6.74;100.00
74327;BME280;62745;51.060;13.786;2023-12-14T02:27:47;99121.84;;;6.51;100.00
74327;BME280;62745;51.060;13.786;2023-12-14T02:30:13;99146.44;;;6.67;100.00
74327;BME280;62745;51.060;13.786;2023-12-14T02:32:39;99152.94;;;6.64;100.00
74327;BME280;62745;51.060;13.786;2023-12-14T02:35:05;99149.44;;;6.57;100.00
74327;BME280;62745;51.060;13.786;2023-12-14T02:37:32;99155.22;;;6.67;100.00
74327;BME280;62745;51.060;13.786;2023-12-14T02:39:59;99162.16;;;6.68;100.00
74327;BME280;62745;51.060;13.786;2023-12-14T02:42:24;99150.41;;;6.77;100.00
74327;BME280;62745;51.060;13.786;2023-12-14T02:44:50;99151.00;;;6.79;100.00
74327;BME280;62745;51.060;13.786;2023-12-14T02:47:15;99159.13;;;6.71;100.00
74327;BME280;62745;51.060;13.786;2023-12-14T02:49:41;99161.53;;;6.66;100.00
74327;BME280;62745;51.060;13.786;2023-12-14T02:52:06;99167.22;;;6.63;100.00
74327;BME280;62745;51.060;13.786;2023-12-14T02:54:32;99165.38;;;6.57;100.00
74327;BME280;62745;51.060;13.786;2023-12-14T02:56:57;99165.50;;;6.49;100.00
74327;BME280;62745;51.060;13.786;2023-12-14T02:59:22;99166.50;;;6.48;100.00
74327;BME280;62745;51.060;13.786;2023-12-14T03:01:48;99168.75;;;6.51;100.00
74327;BME280;62745;51.060;13.786;2023-12-14T03:04:13;99175.28;;;6.48;100.00
74327;BME280;62745;51.060;13.786;2023-12-14T03:06:38;99180.00;;;6.53;100.00
74327;BME280;62745;51.060;13.786;2023-12-14T03:09:03;99186.53;;;6.50;100.00
74327;BME280;62745;51.060;13.786;2023-12-14T03:11:29;99181.78;;;6.46;100.00
74327;BME280;62745;51.060;13.786;2023-12-14T03:13:54;99177.00;;;6.56;100.00
74327;BME280;62745;51.060;13.786;2023-12-14T03:16:20;99192.09;;;6.55;100.00
74327;BME280;62745;51.060;13.786;2023-12-14T03:18:46;99194.78;;;6.62;100.00
74327;BME280;62745;51.060;13.786;2023-12-14T03:21:11;99204.00;;;6.66;100.00
74327;BME280;62745;51.060;13.786;2023-12-14T03:23:36;99208.09;;;6.69;100.00
74327;BME280;62745;51.060;13.786;2023-12-14T03:26:02;99204.22;;;6.99;100.00
74327;BME280;62745;51.060;13.786;2023-12-14T03:28:27;99199.50;;;6.94;100.00
74327;BME280;62745;51.060;13.786;2023-12-14T03:30:53;99201.84;;;6.76;100.00
74327;BME280;62745;51.060;13.786;2023-12-14T03:33:18;99212.25;;;6.78;100.00
74327;BME280;62745;51.060;13.786;2023-12-14T03:36:07;99149.72;;;6.41;100.00
74327;BME280;62745;51.060;13.786;2023-12-14T03:38:38;99172.66;;;6.55;100.00
74327;BME280;62745;51.060;13.786;2023-12-14T03:41:06;99197.16;;;6.78;100.00
74327;BME280;62745;51.060;13.786;2023-12-14T03:43:31;99202.06;;;6.53;100.00
74327;BME280;62745;51.060;13.786;2023-12-14T03:45:59;99159.16;;;6.50;100.00
74327;BME280;62745;51.060;13.786;2023-12-14T03:48:38;99204.31;;;6.84;100.00
74327;BME280;62745;51.060;13.786;2023-12-14T03:51:04;99238.13;;;6.97;100.00
74327;BME280;62745;51.060;13.786;2023-12-14T03:53:30;99162.41;;;6.45;100.00
74327;BME280;62745;51.060;13.786;2023-12-14T03:55:55;99248.72;;;6.90;100.00
74327;BME280;62745;51.060;13.786;2023-12-14T03:58:21;99205.97;;;6.57;100.00
74327;BME280;62745;51.060;13.786;2023-12-14T04:00:46;99219.06;;;6.59;100.00
74327;BME280;62745;51.060;13.786;2023-12-14T04:03:12;99240.75;;;6.90;100.00
74327;BME280;62745;51.060;13.786;2023-12-14T04:05:49;99261.84;;;7.05;100.00
74327;BME280;62745;51.060;13.786;2023-12-14T04:08:19;99261.31;;;6.88;100.00
74327;BME280;62745;51.060;13.786;2023-12-14T04:10:44;99222.56;;;6.66;100.00
74327;BME280;62745;51.060;13.786;2023-12-14T04:13:13;99221.44;;;6.54;100.00
74327;BME280;62745;51.060;13.786;2023-12-14T04:15:38;99201.50;;;6.37;100.00
74327;BME280;62745;51.060;13.786;2023-12-14T04:18:04;99198.97;;;6.50;100.00
74327;BME280;62745;51.060;13.786;2023-12-14T04:20:31;99234.34;;;6.85;100.00
74327;BME280;62745;51.060;13.786;2023-12-14T04:22:57;99285.03;;;7.18;100.00
74327;BME280;62745;51.060;13.786;2023-12-14T04:25:22;99246.72;;;6.99;100.00
74327;BME280;62745;51.060;13.786;2023-12-14T04:27:48;99208.09;;;6.69;100.00
74327;BME280;62745;51.060;13.786;2023-12-14T04:30:13;99214.19;;;6.90;100.00
74327;BME280;62745;51.060;13.786;2023-12-14T04:32:38;99288.09;;;7.15;100.00
74327;BME280;62745;51.060;13.786;2023-12-14T04:35:04;99261.53;;;6.87;100.00
74327;BME280;62745;51.060;13.786;2023-12-14T04:37:59;99243.41;;;6.69;100.00
74327;BME280;62745;51.060;13.786;2023-12-14T04:40:48;99211.13;;;6.66;100.00
74327;BME280;62745;51.060;13.786;2023-12-14T04:43:23;99250.34;;;6.91;100.00
74327;BME280;62745;51.060;13.786;2023-12-14T04:45:59;99230.84;;;6.78;100.00
74327;BME280;62745;51.060;13.786;2023-12-14T04:48:38;99242.84;;;6.74;100.00
74327;BME280;62745;51.060;13.786;2023-12-14T04:51:22;99285.00;;;7.11;100.00
74327;BME280;62745;51.060;13.786;2023-12-14T04:53:58;99331.31;;;7.30;100.00
74327;BME280;62745;51.060;13.786;2023-12-14T04:56:23;99263.81;;;6.69;100.00
74327;BME280;62745;51.060;13.786;2023-12-14T04:58:48;99287.06;;;6.88;100.00
74327;BME280;62745;51.060;13.786;2023-12-14T05:01:14;99295.34;;;6.78;100.00
74327;BME280;62745;51.060;13.786;2023-12-14T05:03:39;99311.00;;;6.94;100.00
74327;BME280;62745;51.060;13.786;2023-12-14T05:06:05;99319.72;;;6.88;100.00
74327;BME280;62745;51.060;13.786;2023-12-14T05:08:36;99337.81;;;7.00;100.00
74327;BME280;62745;51.060;13.786;2023-12-14T05:11:06;99351.66;;;6.95;100.00
74327;BME280;62745;51.060;13.786;2023-12-14T05:13:31;99323.78;;;6.63;100.00
74327;BME280;62745;51.060;13.786;2023-12-14T05:15:56;99332.38;;;6.65;100.00
74327;BME280;62745;51.060;13.786;2023-12-14T05:18:24;99357.09;;;7.08;100.00
74327;BME280;62745;51.060;13.786;2023-12-14T05:20:50;99371.66;;;6.91;100.00
74327;BME280;62745;51.060;13.786;2023-12-14T05:23:16;99367.22;;;6.55;100.00
74327;BME280;62745;51.060;13.786;2023-12-14T05:25:41;99341.34;;;6.43;100.00
74327;BME280;62745;51.060;13.786;2023-12-14T05:28:06;99374.47;;;6.68;100.00
74327;BME280;62745;51.060;13.786;2023-12-14T05:30:32;99371.53;;;6.42;100.00
74327;BME280;62745;51.060;13.786;2023-12-14T05:32:57;99385.81;;;6.41;100.00
74327;BME280;62745;51.060;13.786;2023-12-14T05:35:22;99375.13;;;6.19;100.00
74327;BME280;62745;51.060;13.786;2023-12-14T05:37:48;99384.72;;;6.20;100.00
74327;BME280;62745;51.060;13.786;2023-12-14T05:40:13;99391.97;;;6.12;100.00
74327;BME280;62745;51.060;13.786;2023-12-14T05:42:39;99401.22;;;6.01;100.00
74327;BME280;62745;51.060;13.786;2023-12-14T05:45:07;99397.66;;;6.09;100.00
74327;BME280;62745;51.060;13.786;2023-12-14T05:47:33;99380.63;;;6.03;100.00
74327;BME280;62745;51.060;13.786;2023-12-14T05:50:00;99411.59;;;6.47;100.00
74327;BME280;62745;51.060;13.786;2023-12-14T05:52:25;99422.00;;;6.48;100.00
74327;BME280;62745;51.060;13.786;2023-12-14T05:54:50;99418.66;;;6.40;100.00
74327;BME280;62745;51.060;13.786;2023-12-14T05:57:16;99418.56;;;6.33;100.00
74327;BME280;62745;51.060;13.786;2023-12-14T05:59:41;99428.28;;;6.26;100.00
74327;BME280;62745;51.060;13.786;2023-12-14T06:02:06;99433.91;;;6.38;100.00
74327;BME280;62745;51.060;13.786;2023-12-14T06:04:32;99434.28;;;6.34;100.00
74327;BME280;62745;51.060;13.786;2023-12-14T06:06:58;99450.31;;;6.41;100.00
74327;BME280;62745;51.060;13.786;2023-12-14T06:09:23;99452.59;;;6.44;100.00
74327;BME280;62745;51.060;13.786;2023-12-14T06:11:55;99459.16;;;6.48;100.00
74327;BME280;62745;51.060;13.786;2023-12-14T06:14:20;99460.81;;;6.49;100.00
74327;BME280;62745;51.060;13.786;2023-12-14T06:16:46;99453.41;;;6.45;100.00
74327;BME280;62745;51.060;13.786;2023-12-14T06:19:11;99464.09;;;6.51;100.00
74327;BME280;62745;51.060;13.786;2023-12-14T06:21:36;99462.34;;;6.58;100.00
74327;BME280;62745;51.060;13.786;2023-12-14T06:24:02;99460.22;;;6.54;100.00
74327;BME280;62745;51.060;13.786;2023-12-14T06:26:28;99470.97;;;6.46;100.00
74327;BME280;62745;51.060;13.786;2023-12-14T06:28:53;99472.63;;;6.32;100.00
74327;BME280;62745;51.060;13.786;2023-12-14T06:31:19;99484.16;;;6.39;100.00
74327;BME280;62745;51.060;13.786;2023-12-14T06:33:50;99486.06;;;6.45;100.00
74327;BME280;62745;51.060;13.786;2023-12-14T06:36:18;99492.75;;;6.56;100.00
74327;BME280;62745;51.060;13.786;2023-12-14T06:38:44;99503.03;;;6.80;100.00
74327;BME280;62745;51.060;13.786;2023-12-14T06:41:20;99489.19;;;6.85;100.00
74327;BME280;62745;51.060;13.786;2023-12-14T06:43:49;99495.97;;;6.87;100.00
74327;BME280;62745;51.060;13.786;2023-12-14T06:46:14;99505.25;;;6.77;100.00
74327;BME280;62745;51.060;13.786;2023-12-14T06:48:40;99508.34;;;6.80;100.00
74327;BME280;62745;51.060;13.786;2023-12-14T06:51:05;99522.06;;;6.84;100.00
74327;BME280;62745;51.060;13.786;2023-12-14T06:53:31;99510.00;;;6.67;100.00
74327;BME280;62745;51.060;13.786;2023-12-14T06:55:56;99523.06;;;6.83;100.00
74327;BME280;62745;51.060;13.786;2023-12-14T06:58:22;99516.31;;;6.66;100.00
74327;BME280;62745;51.060;13.786;2023-12-14T07:00:47;99537.28;;;6.60;100.00
74327;BME280;62745;51.060;13.786;2023-12-14T07:03:13;99537.47;;;6.59;100.00
74327;BME280;62745;51.060;13.786;2023-12-14T07:05:39;99544.63;;;6.58;100.00
74327;BME280;62745;51.060;13.786;2023-12-14T07:08:04;99552.28;;;6.68;100.00
74327;BME280;62745;51.060;13.786;2023-12-14T07:10:30;99549.09;;;6.58;100.00
74327;BME280;62745;51.060;13.786;2023-12-14T07:12:55;99555.13;;;6.67;100.00
74327;BME280;62745;51.060;13.786;2023-12-14T07:15:21;99542.34;;;6.55;100.00
74327;BME280;62745;51.060;13.786;2023-12-14T07:17:46;99567.19;;;6.54;100.00
74327;BME280;62745;51.060;13.786;2023-12-14T07:20:11;99579.00;;;6.52;100.00
74327;BME280;62745;51.060;13.786;2023-12-14T07:22:37;99583.84;;;6.48;100.00
74327;BME280;62745;51.060;13.786;2023-12-14T07:25:03;99592.28;;;6.52;100.00
74327;BME280;62745;51.060;13.786;2023-12-14T07:27:29;99593.09;;;6.52;100.00
74327;BME280;62745;51.060;13.786;2023-12-14T07:29:54;99604.63;;;6.59;100.00
74327;BME280;62745;51.060;13.786;2023-12-14T07:32:20;99611.47;;;6.54;100.00
74327;BME280;62745;51.060;13.786;2023-12-14T07:34:46;99611.31;;;6.41;100.00
74327;BME280;62745;51.060;13.786;2023-12-14T07:37:11;99616.34;;;6.50;100.00
74327;BME280;62745;51.060;13.786;2023-12-14T07:39:37;99618.81;;;6.52;100.00
74327;BME280;62745;51.060;13.786;2023-12-14T07:42:02;99624.41;;;6.57;100.00
74327;BME280;62745;51.060;13.786;2023-12-14T07:44:28;99626.75;;;6.52;100.00
74327;BME280;62745;51.060;13.786;2023-12-14T07:46:55;99629.81;;;6.63;100.00
74327;BME280;62745;51.060;13.786;2023-12-14T07:49:21;99627.06;;;6.57;100.00
74327;BME280;62745;51.060;13.786;2023-12-14T07:51:48;99637.50;;;6.58;100.00
74327;BME280;62745;51.060;13.786;2023-12-14T07:54:14;99650.84;;;6.65;100.00
74327;BME280;62745;51.060;13.786;2023-12-14T07:56:39;99648.47;;;6.70;100.00
74327;BME280;62745;51.060;13.786;2023-12-14T07:59:04;99654.78;;;6.84;100.00
74327;BME280;62745;51.060;13.786;2023-12-14T08:01:32;99647.75;;;6.61;100.00
74327;BME280;62745;51.060;13.786;2023-12-14T08:03:57;99648.53;;;6.47;100.00
74327;BME280;62745;51.060;13.786;2023-12-14T08:06:23;99668.84;;;6.40;100.00
74327;BME280;62745;51.060;13.786;2023-12-14T08:08:48;99668.25;;;6.30;100.00
74327;BME280;62745;51.060;13.786;2023-12-14T08:11:13;99677.00;;;6.53;100.00
74327;BME280;62745;51.060;13.786;2023-12-14T08:13:39;99676.66;;;6.71;100.00
74327;BME280;62745;51.060;13.786;2023-12-14T08:16:05;99676.44;;;6.43;100.00
74327;BME280;62745;51.060;13.786;2023-12-14T08:18:31;99687.97;;;6.50;100.00
74327;BME280;62745;51.060;13.786;2023-12-14T08:20:57;99682.94;;;6.41;100.00
74327;BME280;62745;51.060;13.786;2023-12-14T08:23:22;99688.88;;;6.43;100.00
74327;BME280;62745;51.060;13.786;2023-12-14T08:25:48;99694.69;;;6.38;100.00
74327;BME280;62745;51.060;13.786;2023-12-14T08:28:13;99700.88;;;6.39;100.00
74327;BME280;62745;51.060;13.786;2023-12-14T08:30:39;99706.13;;;6.24;100.00
74327;BME280;62745;51.060;13.786;2023-12-14T08:33:04;99697.34;;;6.38;100.00
74327;BME280;62745;51.060;13.786;2023-12-14T08:35:29;99709.47;;;6.41;100.00
74327;BME280;62745;51.060;13.786;2023-12-14T08:37:55;99709.66;;;6.39;100.00
74327;BME280;62745;51.060;13.786;2023-12-14T08:40:20;99723.97;;;6.30;100.00
74327;BME280;62745;51.060;13.786;2023-12-14T08:42:47;99720.03;;;6.26;100.00
74327;BME280;62745;51.060;13.786;2023-12-14T08:45:12;99724.88;;;6.22;100.00
74327;BME280;62745;51.060;13.786;2023-12-14T08:47:39;99733.31;;;6.18;100.00
74327;BME280;62745;51.060;13.786;2023-12-14T08:50:05;99739.28;;;6.43;100.00
74327;BME280;62745;51.060;13.786;2023-12-14T08:52:31;99740.56;;;6.47;100.00
74327;BME280;62745;51.060;13.786;2023-12-14T08:54:57;99751.97;;;6.55;100.00
74327;BME280;62745;51.060;13.786;2023-12-14T08:57:23;99756.03;;;6.43;100.00
74327;BME280;62745;51.060;13.786;2023-12-14T08:59:49;99756.59;;;6.53;100.00
74327;BME280;62745;51.060;13.786;2023-12-14T09:02:15;99764.53;;;6.39;100.00
74327;BME280;62745;51.060;13.786;2023-12-14T09:04:41;99774.75;;;6.19;100.00
74327;BME280;62745;51.060;13.786;2023-12-14T09:07:06;99772.41;;;6.24;100.00
74327;BME280;62745;51.060;13.786;2023-12-14T09:09:31;99785.50;;;6.25;100.00
74327;BME280;62745;51.060;13.786;2023-12-14T09:11:57;99795.16;;;6.18;100.00
74327;BME280;62745;51.060;13.786;2023-12-14T09:14:23;99789.63;;;6.28;100.00
74327;BME280;62745;51.060;13.786;2023-12-14T09:16:49;99797.66;;;6.43;100.00
74327;BME280;62745;51.060;13.786;2023-12-14T09:19:14;99802.53;;;6.54;100.00
74327;BME280;62745;51.060;13.786;2023-12-14T09:21:40;99801.06;;;6.51;100.00
74327;BME280;62745;51.060;13.786;2023-12-14T09:24:05;99798.41;;;6.51;100.00
74327;BME280;62745;51.060;13.786;2023-12-14T09:26:31;99806.31;;;6.37;100.00
74327;BME280;62745;51.060;13.786;2023-12-14T09:28:56;99814.75;;;6.40;100.00
74327;BME280;62745;51.060;13.786;2023-12-14T09:31:22;99816.00;;;6.21;100.00
74327;BME280;62745;51.060;13.786;2023-12-14T09:33:48;99820.28;;;6.30;100.00
74327;BME280;62745;51.060;13.786;2023-12-14T09:36:13;99824.38;;;6.10;100.00
74327;BME280;62745;51.060;13.786;2023-12-14T09:38:40;99827.97;;;6.17;100.00
74327;BME280;62745;51.060;13.786;2023-12-14T09:41:06;99826.13;;;5.79;100.00
74327;BME280;62745;51.060;13.786;2023-12-14T09:43:33;99833.75;;;5.82;100.00
74327;BME280;62745;51.060;13.786;2023-12-14T09:45:59;99829.78;;;5.78;100.00
74327;BME280;62745;51.060;13.786;2023-12-14T09:48:26;99848.00;;;5.81;100.00
74327;BME280;62745;51.060;13.786;2023-12-14T09:50:55;99841.47;;;5.99;100.00
74327;BME280;62745;51.060;13.786;2023-12-14T09:53:21;99846.47;;;5.86;100.00
74327;BME280;62745;51.060;13.786;2023-12-14T09:55:46;99840.00;;;5.97;100.00
74327;BME280;62745;51.060;13.786;2023-12-14T09:58:12;99844.47;;;5.96;100.00
74327;BME280;62745;51.060;13.786;2023-12-14T10:00:41;99856.03;;;6.03;100.00
74327;BME280;62745;51.060;13.786;2023-12-14T10:03:19;99863.84;;;6.05;100.00
74327;BME280;62745;51.060;13.786;2023-12-14T10:05:47;99861.09;;;5.90;100.00
74327;BME280;62745;51.060;13.786;2023-12-14T10:08:15;99862.34;;;6.02;100.00
74327;BME280;62745;51.060;13.786;2023-12-14T10:10:41;99868.19;;;6.29;100.00
74327;BME280;62745;51.060;13.786;2023-12-14T10:13:07;99861.25;;;6.28;100.00
74327;BME280;62745;51.060;13.786;2023-12-14T10:15:42;99867.63;;;6.11;100.00
74327;BME280;62745;51.060;13.786;2023-12-14T10:18:08;99853.63;;;6.25;100.00
74327;BME280;62745;51.060;13.786;2023-12-14T10:20:34;99877.00;;;6.21;100.00
74327;BME280;62745;51.060;13.786;2023-12-14T10:23:03;99876.59;;;6.10;100.00
74327;BME280;62745;51.060;13.786;2023-12-14T10:25:29;99880.09;;;6.41;100.00
74327;BME280;62745;51.060;13.786;2023-12-14T10:27:54;99885.13;;;6.28;100.00
74327;BME280;62745;51.060;13.786;2023-12-14T10:30:19;99884.38;;;6.11;100.00
74327;BME280;62745;51.060;13.786;2023-12-14T10:32:49;99891.06;;;5.91;100.00
74327;BME280;62745;51.060;13.786;2023-12-14T10:35:16;99888.69;;;6.04;100.00
74327;BME280;62745;51.060;13.786;2023-12-14T10:37:42;99902.44;;;6.08;100.00
74327;BME280;62745;51.060;13.786;2023-12-14T10:40:13;99896.63;;;6.12;100.00
74327;BME280;62745;51.060;13.786;2023-12-14T10:42:43;99891.50;;;6.02;100.00
74327;BME280;62745;51.060;13.786;2023-12-14T10:45:11;99896.69;;;5.80;100.00
74327;BME280;62745;51.060;13.786;2023-12-14T10:47:37;99902.63;;;6.06;100.00
74327;BME280;62745;51.060;13.786;2023-12-14T10:50:05;99911.34;;;6.15;100.00
74327;BME280;62745;51.060;13.786;2023-12-14T10:52:31;99909.56;;;6.07;100.00
74327;BME280;62745;51.060;13.786;2023-12-14T10:55:04;99917.53;;;5.99;100.00
74327;BME280;62745;51.060;13.786;2023-12-14T10:57:30;99922.38;;;5.79;100.00
74327;BME280;62745;51.060;13.786;2023-12-14T10:59:59;99922.25;;;5.56;100.00
74327;BME280;62745;51.060;13.786;2023-12-14T11:02:25;99931.50;;;5.77;100.00
74327;BME280;62745;51.060;13.786;2023-12-14T11:04:59;99934.81;;;5.79;100.00
74327;BME280;62745;51.060;13.786;2023-12-14T11:10:10;99948.41;;;5.76;100.00
74327;BME280;62745;51.060;13.786;2023-12-14T11:12:36;99949.91;;;5.46;100.00
74327;BME280;62745;51.060;13.786;2023-12-14T11:15:02;99934.00;;;5.37;100.00
74327;BME280;62745;51.060;13.786;2023-12-14T11:17:29;99947.13;;;5.39;100.00
74327;BME280;62745;51.060;13.786;2023-12-14T11:19:55;99956.38;;;5.59;100.00
74327;BME280;62745;51.060;13.786;2023-12-14T11:22:24;99964.13;;;5.69;100.00
74327;BME280;62745;51.060;13.786;2023-12-14T11:24:54;99971.22;;;5.85;100.00
74327;BME280;62745;51.060;13.786;2023-12-14T11:27:29;99968.25;;;5.96;100.00
74327;BME280;62745;51.060;13.786;2023-12-14T11:29:54;99974.22;;;6.06;100.00
74327;BME280;62745;51.060;13.786;2023-12-14T11:32:21;99978.19;;;6.10;100.00
74327;BME280;62745;51.060;13.786;2023-12-14T11:34:46;99980.53;;;6.05;100.00
74327;BME280;62745;51.060;13.786;2023-12-14T11:37:12;99979.22;;;5.93;100.00
74327;BME280;62745;51.060;13.786;2023-12-14T11:39:38;99975.88;;;5.99;100.00
74327;BME280;62745;51.060;13.786;2023-12-14T11:42:04;99975.38;;;5.95;100.00
74327;BME280;62745;51.060;13.786;2023-12-14T11:44:32;99982.66;;;6.01;100.00
74327;BME280;62745;51.060;13.786;2023-12-14T11:46:57;99977.00;;;6.13;100.00
74327;BME280;62745;51.060;13.786;2023-12-14T11:49:26;99987.63;;;6.04;100.00
74327;BME280;62745;51.060;13.786;2023-12-14T11:51:54;99982.16;;;6.06;100.00
74327;BME280;62745;51.060;13.786;2023-12-14T11:54:20;99983.00;;;6.07;100.00
74327;BME280;62745;51.060;13.786;2023-12-14T11:56:47;99975.72;;;5.92;100.00
74327;BME280;62745;51.060;13.786;2023-12-14T11:59:14;99984.81;;;6.06;100.00
74327;BME280;62745;51.060;13.786;2023-12-14T12:01:56;99988.81;;;5.94;100.00
74327;BME280;62745;51.060;13.786;2023-12-14T12:04:23;99985.66;;;5.98;100.00
74327;BME280;62745;51.060;13.786;2023-12-14T12:06:49;99988.47;;;5.97;100.00
74327;BME280;62745;51.060;13.786;2023-12-14T12:09:33;99990.09;;;6.22;100.00
74327;BME280;62745;51.060;13.786;2023-12-14T12:11:58;99998.25;;;5.96;100.00
74327;BME280;62745;51.060;13.786;2023-12-14T12:14:24;99988.81;;;5.78;100.00
74327;BME280;62745;51.060;13.786;2023-12-14T12:16:49;99992.63;;;5.91;100.00
74327;BME280;62745;51.060;13.786;2023-12-14T12:19:16;99999.06;;;5.89;100.00
74327;BME280;62745;51.060;13.786;2023-12-14T12:21:41;100007.19;;;5.79;100.00
74327;BME280;62745;51.060;13.786;2023-12-14T12:24:07;99996.94;;;5.92;100.00
74327;BME280;62745;51.060;13.786;2023-12-14T12:26:32;100008.00;;;6.12;100.00
74327;BME280;62745;51.060;13.786;2023-12-14T12:28:57;100007.03;;;6.05;100.00
74327;BME280;62745;51.060;13.786;2023-12-14T12:31:23;100014.81;;;5.74;100.00
74327;BME280;62745;51.060;13.786;2023-12-14T12:33:48;100013.03;;;5.91;100.00
74327;BME280;62745;51.060;13.786;2023-12-14T12:36:13;100018.63;;;5.96;100.00
74327;BME280;62745;51.060;13.786;2023-12-14T12:38:38;100015.50;;;5.92;100.00
74327;BME280;62745;51.060;13.786;2023-12-14T12:41:05;100023.91;;;5.80;100.00
74327;BME280;62745;51.060;13.786;2023-12-14T12:43:30;100024.59;;;5.73;100.00
74327;BME280;62745;51.060;13.786;2023-12-14T12:45:55;100036.19;;;5.81;100.00
74327;BME280;62745;51.060;13.786;2023-12-14T12:48:23;100034.03;;;5.76;100.00
74327;BME280;62745;51.060;13.786;2023-12-14T12:50:48;100042.13;;;5.66;100.00